createdAt,value
2019-03-02T00:01:38.205Z,101187.48
2019-03-02T00:04:10.072Z,101182.30
2019-03-02T00:06:40.570Z,101180.32
2019-03-02T00:09:10.647Z,101169.33
2019-03-02T00:11:40.668Z,101172.31
2019-03-02T00:14:10.751Z,101163.48
2019-03-02T00:16:43.359Z,101171.05
2019-03-02T00:19:12.625Z,101171.72
2019-03-02T00:21:42.651Z,101167.72
2019-03-02T00:24:12.693Z,101167.62
2019-03-02T00:26:45.701Z,101169.05
2019-03-02T00:29:14.496Z,101168.21
2019-03-02T00:31:44.535Z,101166.86
2019-03-02T00:34:14.596Z,101172.11
2019-03-02T00:36:44.643Z,101166.29
2019-03-02T00:39:15.632Z,101171.28
2019-03-02T00:41:46.412Z,101169.05
2019-03-02T00:44:16.426Z,101163.11
2019-03-02T00:46:46.475Z,101164.12
2019-03-02T00:49:19.554Z,101164.35
2019-03-02T00:51:48.160Z,101160.95
2019-03-02T00:54:18.241Z,101161.53
2019-03-02T00:56:48.272Z,101161.95
2019-03-02T00:59:18.292Z,101168.55
2019-03-02T01:01:48.352Z,101153.72
2019-03-02T01:04:18.358Z,101152.41
2019-03-02T01:06:48.742Z,101152.39
2019-03-02T01:09:20.057Z,101151.69
2019-03-02T01:11:50.252Z,101154.11
2019-03-02T01:14:20.219Z,101152.09
2019-03-02T01:16:51.655Z,101143.48
2019-03-02T01:19:21.959Z,101143.53
2019-03-02T01:21:51.977Z,101144.19
2019-03-02T01:24:21.986Z,101145.78
2019-03-02T01:26:52.152Z,101143.31
2019-03-02T01:29:22.204Z,101140.69
2019-03-02T01:31:52.207Z,101131.66
2019-03-02T01:34:22.184Z,101133.31
2019-03-02T01:36:52.202Z,101137.40
2019-03-02T01:39:22.196Z,101129.09
2019-03-02T01:41:53.929Z,101132.66
2019-03-02T01:44:24.118Z,101131.84
2019-03-02T01:46:54.480Z,101124.38
2019-03-02T01:49:24.494Z,101123.67
2019-03-02T01:51:54.729Z,101132.08
2019-03-02T01:54:26.204Z,101130.14
2019-03-02T01:56:56.282Z,101132.48
2019-03-02T01:59:26.358Z,101124.77
2019-03-02T02:01:59.701Z,101133.62
2019-03-02T02:04:28.068Z,101122.83
2019-03-02T02:06:58.086Z,101130.40
2019-03-02T02:09:28.137Z,101125.08
2019-03-02T02:11:58.716Z,101120.08
2019-03-02T02:14:28.743Z,101119.23
2019-03-02T02:16:58.866Z,101115.34
2019-03-02T02:19:28.893Z,101109.17
2019-03-02T02:22:02.180Z,101109.36
2019-03-02T02:24:30.712Z,101114.17
2019-03-02T02:27:00.694Z,101109.47
2019-03-02T02:29:30.690Z,101109.86
2019-03-02T02:32:00.684Z,101107.42
2019-03-02T02:34:30.685Z,101105.48
2019-03-02T02:37:00.682Z,101109.58
2019-03-02T02:39:33.471Z,101103.85
2019-03-02T02:42:05.086Z,101108.24
2019-03-02T02:44:37.727Z,101104.45
2019-03-02T02:47:07.173Z,101100.33
2019-03-02T02:49:37.627Z,101096.06
2019-03-02T02:52:07.672Z,101092.15
2019-03-02T02:54:37.744Z,101089.28
2019-03-02T02:57:07.812Z,101085.78
2019-03-02T02:59:38.547Z,101084.55
2019-03-02T03:02:10.728Z,101082.17
2019-03-02T03:04:41.386Z,101081.53
2019-03-02T03:07:12.467Z,101082.08
2019-03-02T03:10:06.608Z,101083.17
2019-03-02T03:12:36.596Z,101075.62
2019-03-02T03:15:06.880Z,101075.70
2019-03-02T03:17:36.877Z,101070.47
2019-03-02T03:20:10.609Z,101070.81
2019-03-02T03:22:40.957Z,101067.08
2019-03-02T03:25:13.918Z,101064.49
2019-03-02T03:27:42.345Z,101068.02
2019-03-02T03:30:14.158Z,101068.29
2019-03-02T03:32:54.722Z,101068.25
2019-03-02T03:35:17.816Z,101075.27
2019-03-02T03:37:51.375Z,101072.71
2019-03-02T03:40:20.177Z,101066.67
2019-03-02T03:42:52.835Z,101069.41
2019-03-02T03:45:22.932Z,101070.06
2019-03-02T03:47:52.962Z,101069.66
2019-03-02T03:50:23.076Z,101063.72
2019-03-02T03:52:53.100Z,101061.23
2019-03-02T03:55:26.868Z,101059.08
2019-03-02T03:58:00.617Z,101058.80
2019-03-02T04:00:26.562Z,101057.27
2019-03-02T04:02:56.536Z,101055.92
2019-03-02T04:05:26.610Z,101054.06
2019-03-02T04:07:56.599Z,101051.50
2019-03-02T04:10:27.946Z,101050.97
2019-03-02T04:13:03.819Z,101044.50
2019-03-02T04:15:29.816Z,101049.84
2019-03-02T04:17:59.841Z,101051.41
2019-03-02T04:20:33.370Z,101043.77
2019-03-02T04:23:06.070Z,101038.58
2019-03-02T04:25:36.084Z,101043.19
2019-03-02T04:28:06.143Z,101044.21
2019-03-02T04:30:36.163Z,101035.28
2019-03-02T04:33:07.557Z,101037.00
2019-03-02T04:35:37.693Z,101039.07
2019-03-02T04:38:07.722Z,101047.81
2019-03-02T04:40:37.755Z,101049.25
2019-03-02T04:43:07.833Z,101047.98
2019-03-02T04:45:39.675Z,101049.56
2019-03-02T04:48:09.565Z,101053.74
2019-03-02T04:50:39.603Z,101054.47
2019-03-02T04:53:09.607Z,101053.23
2019-03-02T04:55:39.631Z,101057.94
2019-03-02T04:58:11.925Z,101051.59
2019-03-02T05:00:41.995Z,101054.08
2019-03-02T05:03:11.993Z,101056.41
2019-03-02T05:05:43.459Z,101059.78
2019-03-02T05:08:13.605Z,101054.86
2019-03-02T05:10:43.618Z,101054.59
2019-03-02T05:13:13.609Z,101053.24
2019-03-02T05:15:43.644Z,101058.45
2019-03-02T05:18:14.778Z,101054.73
2019-03-02T05:20:45.329Z,101056.84
2019-03-02T05:23:15.309Z,101057.13
2019-03-02T05:25:45.295Z,101056.63
2019-03-02T05:28:15.335Z,101051.98
2019-03-02T05:30:45.343Z,101052.48
2019-03-02T05:33:15.353Z,101058.09
2019-03-02T05:35:47.791Z,101055.55
2019-03-02T05:38:17.058Z,101056.97
2019-03-02T05:40:47.115Z,101060.50
2019-03-02T05:43:17.073Z,101053.73
2019-03-02T05:45:47.101Z,101050.00
2019-03-02T05:48:17.079Z,101047.60
2019-03-02T05:50:47.099Z,101050.73
2019-03-02T05:53:17.105Z,101054.26
2019-03-02T05:55:49.966Z,101057.31
2019-03-02T05:58:18.823Z,101049.83
2019-03-02T06:00:48.819Z,101049.31
2019-03-02T06:03:18.899Z,101057.33
2019-03-02T06:05:48.917Z,101057.03
2019-03-02T06:08:18.950Z,101060.00
2019-03-02T06:10:48.948Z,101062.84
2019-03-02T06:13:19.016Z,101061.70
2019-03-02T06:15:49.132Z,101062.22
2019-03-02T06:18:19.141Z,101057.44
2019-03-02T06:20:49.160Z,101057.95
2019-03-02T06:23:19.206Z,101053.89
2019-03-02T06:25:49.232Z,101060.34
2019-03-02T06:28:19.579Z,101061.52
2019-03-02T06:30:51.029Z,101067.98
2019-03-02T06:33:40.706Z,101066.05
2019-03-02T06:36:10.153Z,101062.56
2019-03-02T06:38:40.356Z,101062.97
2019-03-02T06:41:10.299Z,101057.56
2019-03-02T06:43:40.304Z,101060.83
2019-03-02T06:46:10.286Z,101058.16
2019-03-02T06:48:41.558Z,101058.19
2019-03-02T06:51:12.523Z,101053.59
2019-03-02T06:53:42.496Z,101058.76
2019-03-02T06:56:12.428Z,101064.44
2019-03-02T06:58:45.206Z,101067.29
2019-03-02T07:01:15.220Z,101074.30
2019-03-02T07:03:45.894Z,101073.87
2019-03-02T07:06:16.663Z,101074.88
2019-03-02T07:08:46.642Z,101070.27
2019-03-02T07:11:16.642Z,101075.73
2019-03-02T07:13:46.646Z,101075.02
2019-03-02T07:16:20.007Z,101079.72
2019-03-02T07:18:53.536Z,101071.68
2019-03-02T07:21:23.638Z,101062.38
2019-03-02T07:23:53.606Z,101060.84
2019-03-02T07:26:23.588Z,101065.16
2019-03-02T07:28:53.632Z,101067.41
2019-03-02T07:31:23.731Z,101067.02
2019-03-02T07:33:53.746Z,101069.80
2019-03-02T07:36:23.828Z,101076.55
2019-03-02T07:38:56.628Z,101070.50
2019-03-02T07:41:25.606Z,101069.78
2019-03-02T07:43:55.678Z,101067.23
2019-03-02T07:46:25.789Z,101069.17
2019-03-02T07:48:55.835Z,101062.50
2019-03-02T07:51:25.911Z,101060.74
2019-03-02T07:53:55.925Z,101056.86
2019-03-02T07:56:26.048Z,101065.59
2019-03-02T07:58:56.060Z,101063.83
2019-03-02T08:01:26.108Z,101061.63
2019-03-02T08:03:59.575Z,101069.17
2019-03-02T08:06:28.195Z,101063.83
2019-03-02T08:08:58.265Z,101063.30
2019-03-02T08:11:28.693Z,101070.29
2019-03-02T08:13:58.718Z,101070.82
2019-03-02T08:16:30.119Z,101066.91
2019-03-02T08:19:00.562Z,101066.98
2019-03-02T08:21:32.467Z,101075.74
2019-03-02T08:24:03.692Z,101072.36
2019-03-02T08:26:33.679Z,101072.34
2019-03-02T08:29:03.778Z,101077.37
2019-03-02T08:31:33.840Z,101072.88
2019-03-02T08:34:09.818Z,101070.73
2019-03-02T08:36:37.943Z,101074.61
2019-03-02T08:39:10.733Z,101059.52
2019-03-02T08:41:40.123Z,101063.64
2019-03-02T08:44:10.143Z,101059.93
2019-03-02T08:46:40.157Z,101057.58
2019-03-02T08:49:10.187Z,101059.75
2019-03-02T08:51:40.212Z,101056.45
2019-03-02T08:54:10.336Z,101053.58
2019-03-02T08:56:43.918Z,101052.23
2019-03-02T08:59:12.067Z,101050.08
2019-03-02T09:01:42.167Z,101047.20
2019-03-02T09:04:14.011Z,101052.54
2019-03-02T09:06:44.075Z,101039.93
2019-03-02T09:09:15.243Z,101046.39
2019-03-02T09:11:45.830Z,101044.22
2019-03-02T09:14:18.355Z,101047.20
2019-03-02T09:16:51.770Z,101047.94
2019-03-02T09:19:27.801Z,101045.46
2019-03-02T09:26:01.035Z,101047.73
2019-03-02T09:28:31.777Z,101046.50
2019-03-02T09:31:03.368Z,101040.85
2019-03-02T09:33:38.492Z,101039.81
2019-03-02T09:36:14.805Z,101040.85
2019-03-02T09:38:45.197Z,101040.43
2019-03-02T09:41:22.034Z,101036.13
2019-03-02T09:44:05.404Z,101037.56
2019-03-02T09:46:39.525Z,101035.50
2019-03-02T09:49:22.231Z,101034.59
2019-03-02T09:51:56.944Z,101034.59
2019-03-02T09:54:38.941Z,101041.16
2019-03-02T09:57:12.766Z,101035.52
2019-03-02T09:59:46.513Z,101040.13
2019-03-02T10:02:17.355Z,101038.30
2019-03-02T10:04:47.791Z,101038.09
2019-03-02T10:07:25.259Z,101038.89
2019-03-02T10:09:59.929Z,101036.83
2019-03-02T10:12:30.569Z,101037.86
2019-03-02T10:15:02.157Z,101037.34
2019-03-02T10:17:38.438Z,101040.22
2019-03-02T10:20:25.650Z,101036.53
2019-03-02T10:23:16.041Z,101034.38
2019-03-02T10:26:08.892Z,101037.36
2019-03-02T10:28:44.012Z,101035.89
2019-03-02T10:31:44.825Z,101041.66
2019-03-02T10:34:18.073Z,101034.78
2019-03-02T10:36:51.789Z,101034.49
2019-03-02T10:39:22.031Z,101042.06
2019-03-02T10:41:53.025Z,101034.95
2019-03-02T10:44:24.327Z,101037.41
2019-03-02T10:46:54.666Z,101033.72
2019-03-02T10:50:13.465Z,101036.75
2019-03-02T10:52:45.754Z,101034.05
2019-03-02T10:55:17.469Z,101028.46
2019-03-02T10:57:50.491Z,101020.64
2019-03-02T11:00:29.717Z,101015.97
2019-03-02T11:03:04.205Z,101008.20
2019-03-02T11:06:10.163Z,101006.24
2019-03-02T11:09:13.225Z,101012.59
2019-03-02T11:15:44.916Z,101003.18
2019-03-02T11:19:17.713Z,101007.66
2019-03-02T11:21:53.196Z,101008.11
2019-03-02T11:24:42.393Z,101004.44
2019-03-02T11:27:34.299Z,101000.45
2019-03-02T11:30:18.873Z,100996.66
2019-03-02T11:33:27.502Z,100998.94
2019-03-02T11:43:52.073Z,100985.04
2019-03-02T11:46:29.897Z,100972.80
2019-03-02T11:49:30.812Z,100975.44
2019-03-02T11:52:26.259Z,100976.52
2019-03-02T11:55:09.035Z,100968.22
2019-03-02T11:58:07.529Z,100960.23
2019-03-02T12:00:59.785Z,100964.12
2019-03-02T12:03:56.830Z,100961.24
2019-03-02T12:06:37.798Z,100958.47
2019-03-02T12:09:43.128Z,100957.23
2019-03-02T12:12:30.368Z,100942.94
2019-03-02T12:15:20.047Z,100945.64
2019-03-02T12:18:16.410Z,100947.83
2019-03-02T12:20:57.188Z,100939.97
2019-03-02T12:23:38.863Z,100938.92
2019-03-02T12:26:27.145Z,100936.75
2019-03-02T12:29:41.377Z,100937.38
2019-03-02T12:32:25.145Z,100930.42
2019-03-02T12:34:59.413Z,100920.59
2019-03-02T12:38:07.105Z,100923.30
2019-03-02T12:41:04.596Z,100925.78
2019-03-02T12:43:58.381Z,100925.52
2019-03-02T12:46:47.933Z,100924.56
2019-03-02T12:49:37.641Z,100931.35
2019-03-02T12:52:28.234Z,100929.99
2019-03-02T12:55:32.701Z,100923.56
2019-03-02T12:58:20.075Z,100915.56
2019-03-02T13:01:00.658Z,100907.59
2019-03-02T13:03:49.849Z,100907.98
2019-03-02T13:06:48.139Z,100898.25
2019-03-02T13:09:31.235Z,100903.15
2019-03-02T13:12:19.281Z,100893.42
2019-03-02T13:15:11.945Z,100898.09
2019-03-02T13:18:00.244Z,100892.52
2019-03-02T13:20:45.084Z,100881.09
2019-03-02T13:23:38.993Z,100883.03
2019-03-02T13:26:18.971Z,100875.44
2019-03-02T13:28:57.384Z,100869.64
2019-03-02T13:31:45.329Z,100865.44
2019-03-02T13:34:37.014Z,100862.47
2019-03-02T13:37:29.070Z,100858.31
2019-03-02T13:40:18.422Z,100863.99
2019-03-02T13:43:04.686Z,100863.66
2019-03-02T13:45:55.422Z,100858.30
2019-03-02T13:48:40.104Z,100853.00
2019-03-02T13:51:31.284Z,100849.95
2019-03-02T13:54:37.414Z,100851.16
2019-03-02T13:57:26.073Z,100850.34
2019-03-02T14:00:21.208Z,100844.61
2019-03-02T14:03:06.538Z,100842.70
2019-03-02T14:05:55.350Z,100830.94
2019-03-02T14:08:44.342Z,100833.41
2019-03-02T14:11:43.067Z,100835.95
2019-03-02T14:14:30.429Z,100835.16
2019-03-02T14:17:11.780Z,100826.34
2019-03-02T14:20:07.931Z,100819.81
2019-03-02T14:22:48.532Z,100807.40
2019-03-02T14:25:42.088Z,100800.80
2019-03-02T14:28:49.904Z,100806.34
2019-03-02T14:31:48.880Z,100800.64
2019-03-02T14:34:44.828Z,100802.62
2019-03-02T14:37:47.908Z,100805.49
2019-03-02T14:40:47.247Z,100803.80
2019-03-02T14:43:41.882Z,100802.17
2019-03-02T14:46:23.314Z,100794.64
2019-03-02T14:49:17.569Z,100796.11
2019-03-02T14:52:06.642Z,100795.09
2019-03-02T14:54:56.964Z,100805.69
2019-03-02T14:57:36.483Z,100795.66
2019-03-02T15:00:31.667Z,100798.98
2019-03-02T15:03:19.556Z,100799.90
2019-03-02T15:06:17.695Z,100802.00
2019-03-02T15:09:08.915Z,100794.86
2019-03-02T15:11:47.570Z,100796.71
2019-03-02T15:14:38.396Z,100800.00
2019-03-02T15:17:24.518Z,100789.50
2019-03-02T15:20:11.970Z,100792.69
2019-03-02T15:22:53.106Z,100794.48
2019-03-02T15:26:06.412Z,100795.38
2019-03-02T15:28:56.607Z,100788.67
2019-03-02T15:31:47.034Z,100788.98
2019-03-02T15:34:35.108Z,100781.44
2019-03-02T15:37:24.281Z,100784.30
2019-03-02T15:40:02.380Z,100786.09
2019-03-02T15:42:46.696Z,100784.78
2019-03-02T15:45:31.921Z,100787.23
2019-03-02T15:48:12.679Z,100778.62
2019-03-02T15:50:54.457Z,100779.96
2019-03-02T15:53:39.296Z,100775.05
2019-03-02T15:56:26.827Z,100773.67
2019-03-02T15:59:06.049Z,100775.42
2019-03-02T16:02:00.235Z,100771.53
2019-03-02T16:04:49.568Z,100773.06
2019-03-02T16:07:38.710Z,100765.09
2019-03-02T16:10:28.855Z,100754.11
2019-03-02T16:13:36.278Z,100752.64
2019-03-02T16:16:28.783Z,100751.00
2019-03-02T16:19:14.519Z,100762.00
2019-03-02T16:21:56.659Z,100764.09
2019-03-02T16:24:42.428Z,100762.34
2019-03-02T16:27:21.375Z,100756.06
2019-03-02T16:30:16.683Z,100758.80
2019-03-02T16:33:08.721Z,100754.27
2019-03-02T16:36:04.674Z,100759.22
2019-03-02T16:39:02.820Z,100759.12
2019-03-02T16:41:52.145Z,100760.91
2019-03-02T16:44:41.361Z,100754.94
2019-03-02T16:47:24.499Z,100754.81
2019-03-02T16:50:02.777Z,100752.33
2019-03-02T16:52:54.753Z,100754.66
2019-03-02T16:55:45.217Z,100743.20
2019-03-02T16:58:38.831Z,100743.03
2019-03-02T17:01:27.875Z,100731.97
2019-03-02T17:04:29.203Z,100727.56
2019-03-02T17:07:12.540Z,100731.72
2019-03-02T17:09:49.459Z,100734.14
2019-03-02T17:12:40.846Z,100730.59
2019-03-02T17:15:29.019Z,100734.46
2019-03-02T17:18:36.383Z,100739.47
2019-03-02T17:21:10.835Z,100733.02
2019-03-02T17:23:54.440Z,100725.60
2019-03-02T17:26:35.859Z,100734.89
2019-03-02T17:29:28.929Z,100728.23
2019-03-02T17:32:25.721Z,100724.79
2019-03-02T17:35:21.174Z,100716.56
2019-03-02T17:38:08.159Z,100723.86
2019-03-02T17:40:49.478Z,100720.52
2019-03-02T17:43:46.799Z,100711.45
2019-03-02T17:46:35.200Z,100714.69
2019-03-02T17:49:15.557Z,100708.71
2019-03-02T17:52:13.331Z,100706.48
2019-03-02T17:55:04.233Z,100700.70
2019-03-02T17:58:02.726Z,100700.45
2019-03-02T18:01:02.283Z,100698.42
2019-03-02T18:03:50.549Z,100693.98
2019-03-02T18:06:29.414Z,100693.73
2019-03-02T18:09:30.754Z,100691.22
2019-03-02T18:12:29.460Z,100699.34
2019-03-02T18:15:14.377Z,100698.63
2019-03-02T18:17:55.519Z,100715.39
2019-03-02T18:20:25.445Z,100717.66
2019-03-02T18:22:55.535Z,100716.02
2019-03-02T18:25:25.599Z,100718.57
2019-03-02T18:27:55.821Z,100718.91
2019-03-02T18:30:25.898Z,100716.36
2019-03-02T18:32:58.971Z,100725.88
2019-03-02T18:35:29.040Z,100721.16
2019-03-02T18:37:59.472Z,100720.16
2019-03-02T18:40:29.536Z,100724.77
2019-03-02T18:42:59.609Z,100715.04
2019-03-02T18:45:29.674Z,100704.13
2019-03-02T18:48:03.229Z,100698.92
2019-03-02T18:50:41.341Z,100690.67
2019-03-02T18:53:11.483Z,100689.81
2019-03-02T18:55:41.540Z,100691.87
2019-03-02T18:58:11.604Z,100688.93
2019-03-02T19:00:45.630Z,100686.39
2019-03-02T19:03:15.693Z,100682.56
2019-03-02T19:05:46.121Z,100680.41
2019-03-02T19:08:17.559Z,100681.89
2019-03-02T19:10:47.613Z,100677.45
2019-03-02T19:13:17.742Z,100667.63
2019-03-02T19:15:53.783Z,100671.97
2019-03-02T19:18:19.666Z,100670.69
2019-03-02T19:20:49.724Z,100673.38
2019-03-02T19:23:19.862Z,100673.52
2019-03-02T19:25:49.937Z,100667.08
2019-03-02T19:28:20.078Z,100666.52
2019-03-02T19:30:50.120Z,100658.43
2019-03-02T19:33:20.241Z,100659.21
2019-03-02T19:35:50.287Z,100654.41
2019-03-02T19:38:20.393Z,100643.84
2019-03-02T19:40:50.922Z,100639.12
2019-03-02T19:43:21.298Z,100629.84
2019-03-02T19:45:51.410Z,100641.56
2019-03-02T19:48:21.467Z,100642.17
2019-03-02T19:50:51.567Z,100629.35
2019-03-02T19:53:21.612Z,100621.59
2019-03-02T19:55:51.693Z,100614.92
2019-03-02T19:58:21.746Z,100605.27
2019-03-02T20:00:52.232Z,100608.50
2019-03-02T20:03:22.543Z,100604.88
2019-03-02T20:05:57.329Z,100597.97
2019-03-02T20:08:36.558Z,100589.86
2019-03-02T20:11:09.284Z,100589.48
2019-03-02T20:13:54.438Z,100579.82
2019-03-02T20:16:27.951Z,100581.77
2019-03-02T20:19:00.931Z,100580.30
2019-03-02T20:21:31.303Z,100582.34
2019-03-02T20:24:01.710Z,100574.18
2019-03-02T20:26:32.205Z,100580.95
2019-03-02T20:29:02.473Z,100580.30
2019-03-02T20:31:40.282Z,100582.34
2019-03-02T20:34:15.649Z,100581.07
2019-03-02T20:36:53.120Z,100575.48
2019-03-02T20:39:28.223Z,100571.63
2019-03-02T20:41:58.566Z,100572.87
2019-03-02T20:44:28.818Z,100555.80
2019-03-02T20:46:59.133Z,100564.16
2019-03-02T20:49:29.259Z,100563.17
2019-03-02T20:51:59.356Z,100547.91
2019-03-02T20:54:29.551Z,100552.94
2019-03-02T20:56:59.670Z,100545.80
2019-03-02T20:59:29.736Z,100548.23
2019-03-02T21:01:59.963Z,100540.84
2019-03-02T21:04:30.082Z,100533.44
2019-03-02T21:07:00.187Z,100525.85
2019-03-02T21:09:30.251Z,100524.63
2019-03-02T21:12:00.350Z,100519.63
2019-03-02T21:14:30.446Z,100516.34
2019-03-02T21:17:00.550Z,100516.05
2019-03-02T21:19:30.634Z,100511.73
2019-03-02T21:22:00.719Z,100512.88
2019-03-02T21:24:30.809Z,100508.16
2019-03-02T21:27:00.869Z,100500.00
2019-03-02T21:29:30.933Z,100496.75
2019-03-02T21:32:01.011Z,100491.95
2019-03-02T21:34:31.160Z,100485.91
2019-03-02T21:37:01.295Z,100484.22
2019-03-02T21:39:31.380Z,100478.55
2019-03-02T21:42:01.399Z,100468.80
2019-03-02T21:44:31.547Z,100463.64
2019-03-02T21:47:01.593Z,100456.67
2019-03-02T21:49:31.685Z,100457.08
2019-03-02T21:52:01.749Z,100454.44
2019-03-02T21:54:31.826Z,100454.66
2019-03-02T21:57:01.874Z,100446.38
2019-03-02T21:59:31.914Z,100446.13
2019-03-02T22:02:01.957Z,100445.68
2019-03-02T22:04:32.055Z,100439.25
2019-03-02T22:07:02.111Z,100439.52
2019-03-02T22:09:32.325Z,100430.08
2019-03-02T22:12:02.463Z,100432.97
2019-03-02T22:14:32.667Z,100426.19
2019-03-02T22:17:04.257Z,100429.57
2019-03-02T22:19:34.307Z,100424.01
2019-03-02T22:22:04.446Z,100425.09
2019-03-02T22:24:34.532Z,100428.59
2019-03-02T22:27:04.615Z,100424.73
2019-03-02T22:29:34.667Z,100427.20
2019-03-02T22:32:04.721Z,100422.67
2019-03-02T22:34:34.714Z,100408.67
2019-03-02T22:37:04.751Z,100403.04
2019-03-02T22:39:34.776Z,100403.28
2019-03-02T22:42:05.100Z,100411.26
2019-03-02T22:44:35.119Z,100396.83
2019-03-02T22:47:05.229Z,100388.28
2019-03-02T22:49:35.249Z,100386.78
2019-03-02T22:52:05.386Z,100396.55
2019-03-02T22:54:35.395Z,100396.15
2019-03-02T22:57:05.536Z,100385.55
2019-03-02T22:59:35.722Z,100384.78
2019-03-02T23:02:19.930Z,100387.29
2019-03-02T23:04:49.983Z,100382.66
2019-03-02T23:07:20.120Z,100383.39
2019-03-02T23:09:50.647Z,100381.99
2019-03-02T23:12:22.389Z,100378.75
2019-03-02T23:14:52.713Z,100376.08
2019-03-02T23:17:22.771Z,100373.03
2019-03-02T23:19:52.840Z,100379.27
2019-03-02T23:22:22.907Z,100380.94
2019-03-02T23:24:52.983Z,100378.44
2019-03-02T23:27:22.988Z,100365.37
2019-03-02T23:29:53.041Z,100363.03
2019-03-02T23:32:23.069Z,100365.54
2019-03-02T23:34:53.108Z,100367.05
2019-03-02T23:37:23.142Z,100355.84
2019-03-02T23:39:53.204Z,100356.12
2019-03-02T23:42:23.242Z,100356.00
2019-03-02T23:44:53.396Z,100351.39
2019-03-02T23:47:23.399Z,100355.06
2019-03-02T23:49:53.815Z,100345.87
2019-03-02T23:52:23.831Z,100340.84
2019-03-02T23:54:53.900Z,100336.78
2019-03-02T23:57:23.946Z,100340.74
2019-03-02T23:59:54.014Z,100334.70
